sensor_id;sensor_type;location;lat;lon;timestamp;P1;durP1;ratioP1;P2;durP2;ratioP2
17414;SDS011;8825;48.086;16.426;2023-05-10T00:03:35;2.97;;;2.73;;
17414;SDS011;8825;48.086;16.426;2023-05-10T00:06:03;3.33;;;2.97;;
17414;SDS011;8825;48.086;16.426;2023-05-10T00:08:31;3.70;;;3.40;;
17414;SDS011;8825;48.086;16.426;2023-05-10T00:10:58;5.03;;;2.90;;
17414;SDS011;8825;48.086;16.426;2023-05-10T00:13:36;3.80;;;3.50;;
17414;SDS011;8825;48.086;16.426;2023-05-10T00:16:04;3.40;;;2.90;;
17414;SDS011;8825;48.086;16.426;2023-05-10T00:18:37;4.40;;;2.83;;
17414;SDS011;8825;48.086;16.426;2023-05-10T00:21:05;3.30;;;3.00;;
17414;SDS011;8825;48.086;16.426;2023-05-10T00:23:33;3.83;;;3.10;;
17414;SDS011;8825;48.086;16.426;2023-05-10T00:26:01;3.37;;;3.07;;
17414;SDS011;8825;48.086;16.426;2023-05-10T00:30:58;3.90;;;3.60;;
17414;SDS011;8825;48.086;16.426;2023-05-10T00:36:05;3.10;;;2.83;;
17414;SDS011;8825;48.086;16.426;2023-05-10T00:41:20;3.83;;;3.30;;
17414;SDS011;8825;48.086;16.426;2023-05-10T00:46:35;3.47;;;3.17;;
17414;SDS011;8825;48.086;16.426;2023-05-10T00:49:09;3.43;;;3.13;;
17414;SDS011;8825;48.086;16.426;2023-05-10T00:51:37;3.20;;;2.90;;
17414;SDS011;8825;48.086;16.426;2023-05-10T00:54:04;7.63;;;3.10;;
17414;SDS011;8825;48.086;16.426;2023-05-10T00:56:32;3.10;;;2.90;;
17414;SDS011;8825;48.086;16.426;2023-05-10T01:01:47;3.80;;;3.40;;
17414;SDS011;8825;48.086;16.426;2023-05-10T01:04:15;3.43;;;3.13;;
17414;SDS011;8825;48.086;16.426;2023-05-10T01:06:42;3.60;;;3.30;;
17414;SDS011;8825;48.086;16.426;2023-05-10T01:09:10;3.30;;;3.00;;
17414;SDS011;8825;48.086;16.426;2023-05-10T01:11:38;3.90;;;3.00;;
17414;SDS011;8825;48.086;16.426;2023-05-10T01:14:06;3.83;;;3.27;;
17414;SDS011;8825;48.086;16.426;2023-05-10T01:16:36;4.53;;;3.40;;
17414;SDS011;8825;48.086;16.426;2023-05-10T01:30:08;3.33;;;3.03;;
17414;SDS011;8825;48.086;16.426;2023-05-10T01:38:23;3.80;;;3.50;;
17414;SDS011;8825;48.086;16.426;2023-05-10T01:44:06;3.47;;;3.17;;
17414;SDS011;8825;48.086;16.426;2023-05-10T01:46:35;3.83;;;3.53;;
17414;SDS011;8825;48.086;16.426;2023-05-10T01:49:08;4.53;;;3.30;;
17414;SDS011;8825;48.086;16.426;2023-05-10T01:52:06;4.00;;;3.50;;
17414;SDS011;8825;48.086;16.426;2023-05-10T01:54:55;3.57;;;3.27;;
17414;SDS011;8825;48.086;16.426;2023-05-10T01:57:25;3.70;;;3.40;;
17414;SDS011;8825;48.086;16.426;2023-05-10T01:59:55;4.10;;;3.70;;
17414;SDS011;8825;48.086;16.426;2023-05-10T02:02:24;4.90;;;3.47;;
17414;SDS011;8825;48.086;16.426;2023-05-10T02:04:55;3.73;;;3.40;;
17414;SDS011;8825;48.086;16.426;2023-05-10T02:07:24;4.13;;;3.50;;
17414;SDS011;8825;48.086;16.426;2023-05-10T02:09:54;3.80;;;3.50;;
17414;SDS011;8825;48.086;16.426;2023-05-10T02:12:23;4.87;;;4.23;;
17414;SDS011;8825;48.086;16.426;2023-05-10T02:14:51;4.27;;;3.70;;
17414;SDS011;8825;48.086;16.426;2023-05-10T02:17:20;4.30;;;3.70;;
17414;SDS011;8825;48.086;16.426;2023-05-10T02:19:49;4.00;;;3.27;;
17414;SDS011;8825;48.086;16.426;2023-05-10T02:22:19;4.07;;;3.60;;
17414;SDS011;8825;48.086;16.426;2023-05-10T02:27:37;3.93;;;3.53;;
17414;SDS011;8825;48.086;16.426;2023-05-10T02:30:07;4.00;;;3.60;;
17414;SDS011;8825;48.086;16.426;2023-05-10T02:32:36;4.67;;;3.80;;
17414;SDS011;8825;48.086;16.426;2023-05-10T02:35:05;3.93;;;3.53;;
17414;SDS011;8825;48.086;16.426;2023-05-10T02:37:34;4.10;;;3.40;;
17414;SDS011;8825;48.086;16.426;2023-05-10T02:40:04;4.43;;;4.00;;
17414;SDS011;8825;48.086;16.426;2023-05-10T02:42:35;3.87;;;3.57;;
17414;SDS011;8825;48.086;16.426;2023-05-10T02:45:05;4.07;;;3.67;;
17414;SDS011;8825;48.086;16.426;2023-05-10T02:47:34;4.00;;;3.63;;
17414;SDS011;8825;48.086;16.426;2023-05-10T02:50:01;4.47;;;3.77;;
17414;SDS011;8825;48.086;16.426;2023-05-10T02:52:30;4.53;;;3.70;;
17414;SDS011;8825;48.086;16.426;2023-05-10T02:55:09;4.00;;;3.60;;
17414;SDS011;8825;48.086;16.426;2023-05-10T02:57:57;3.83;;;3.50;;
17414;SDS011;8825;48.086;16.426;2023-05-10T03:00:26;4.07;;;3.67;;
17414;SDS011;8825;48.086;16.426;2023-05-10T03:03:03;4.77;;;4.20;;
17414;SDS011;8825;48.086;16.426;2023-05-10T03:08:15;5.13;;;3.77;;
17414;SDS011;8825;48.086;16.426;2023-05-10T03:11:01;4.57;;;4.17;;
17414;SDS011;8825;48.086;16.426;2023-05-10T03:13:48;3.97;;;3.67;;
17414;SDS011;8825;48.086;16.426;2023-05-10T03:16:20;5.17;;;4.43;;
17414;SDS011;8825;48.086;16.426;2023-05-10T03:18:48;4.17;;;3.77;;
17414;SDS011;8825;48.086;16.426;2023-05-10T03:21:30;6.93;;;4.60;;
17414;SDS011;8825;48.086;16.426;2023-05-10T03:23:59;4.37;;;3.97;;
17414;SDS011;8825;48.086;16.426;2023-05-10T03:26:34;5.57;;;4.17;;
17414;SDS011;8825;48.086;16.426;2023-05-10T03:29:02;4.23;;;3.83;;
17414;SDS011;8825;48.086;16.426;2023-05-10T03:31:32;5.03;;;3.60;;
17414;SDS011;8825;48.086;16.426;2023-05-10T03:33:59;4.30;;;3.90;;
17414;SDS011;8825;48.086;16.426;2023-05-10T03:36:27;5.37;;;4.50;;
17414;SDS011;8825;48.086;16.426;2023-05-10T03:38:54;4.77;;;3.90;;
17414;SDS011;8825;48.086;16.426;2023-05-10T03:41:22;4.23;;;3.83;;
17414;SDS011;8825;48.086;16.426;2023-05-10T03:46:38;4.10;;;3.70;;
17414;SDS011;8825;48.086;16.426;2023-05-10T03:49:05;4.37;;;3.93;;
17414;SDS011;8825;48.086;16.426;2023-05-10T03:51:33;4.30;;;3.93;;
17414;SDS011;8825;48.086;16.426;2023-05-10T03:54:00;4.27;;;3.87;;
17414;SDS011;8825;48.086;16.426;2023-05-10T03:56:28;5.90;;;4.20;;
17414;SDS011;8825;48.086;16.426;2023-05-10T04:01:33;4.57;;;3.80;;
17414;SDS011;8825;48.086;16.426;2023-05-10T04:04:11;4.03;;;3.73;;
17414;SDS011;8825;48.086;16.426;2023-05-10T04:06:39;4.10;;;3.70;;
17414;SDS011;8825;48.086;16.426;2023-05-10T04:09:06;4.43;;;4.03;;
17414;SDS011;8825;48.086;16.426;2023-05-10T04:11:34;4.43;;;3.80;;
17414;SDS011;8825;48.086;16.426;2023-05-10T04:14:01;3.70;;;3.40;;
17414;SDS011;8825;48.086;16.426;2023-05-10T04:16:29;5.07;;;4.13;;
17414;SDS011;8825;48.086;16.426;2023-05-10T04:18:59;3.63;;;3.33;;
17414;SDS011;8825;48.086;16.426;2023-05-10T04:21:27;4.07;;;3.70;;
17414;SDS011;8825;48.086;16.426;2023-05-10T04:23:55;3.93;;;3.53;;
17414;SDS011;8825;48.086;16.426;2023-05-10T04:26:22;5.70;;;3.87;;
17414;SDS011;8825;48.086;16.426;2023-05-10T04:31:28;4.10;;;3.70;;
17414;SDS011;8825;48.086;16.426;2023-05-10T04:33:55;6.37;;;3.80;;
17414;SDS011;8825;48.086;16.426;2023-05-10T04:36:23;3.83;;;3.53;;
17414;SDS011;8825;48.086;16.426;2023-05-10T04:44:16;3.83;;;3.43;;
17414;SDS011;8825;48.086;16.426;2023-05-10T04:46:43;4.17;;;3.77;;
17414;SDS011;8825;48.086;16.426;2023-05-10T04:51:52;4.43;;;3.70;;
17414;SDS011;8825;48.086;16.426;2023-05-10T04:54:20;4.23;;;3.83;;
17414;SDS011;8825;48.086;16.426;2023-05-10T04:59:35;5.10;;;4.27;;
17414;SDS011;8825;48.086;16.426;2023-05-10T05:02:03;4.37;;;3.97;;
17414;SDS011;8825;48.086;16.426;2023-05-10T05:04:31;5.40;;;3.90;;
17414;SDS011;8825;48.086;16.426;2023-05-10T05:06:59;6.70;;;4.30;;
17414;SDS011;8825;48.086;16.426;2023-05-10T05:09:26;4.73;;;4.33;;
17414;SDS011;8825;48.086;16.426;2023-05-10T05:11:53;5.03;;;4.30;;
17414;SDS011;8825;48.086;16.426;2023-05-10T05:14:28;5.67;;;3.90;;
17414;SDS011;8825;48.086;16.426;2023-05-10T05:16:55;5.03;;;4.23;;
17414;SDS011;8825;48.086;16.426;2023-05-10T05:19:23;4.13;;;3.73;;
17414;SDS011;8825;48.086;16.426;2023-05-10T05:21:50;4.40;;;4.00;;
17414;SDS011;8825;48.086;16.426;2023-05-10T05:24:18;5.20;;;4.50;;
17414;SDS011;8825;48.086;16.426;2023-05-10T05:26:45;5.17;;;4.00;;
17414;SDS011;8825;48.086;16.426;2023-05-10T05:29:13;4.97;;;4.27;;
17414;SDS011;8825;48.086;16.426;2023-05-10T05:31:41;4.67;;;4.03;;
17414;SDS011;8825;48.086;16.426;2023-05-10T05:34:09;6.70;;;4.13;;
17414;SDS011;8825;48.086;16.426;2023-05-10T05:36:36;6.40;;;4.10;;
17414;SDS011;8825;48.086;16.426;2023-05-10T05:39:04;6.77;;;4.00;;
17414;SDS011;8825;48.086;16.426;2023-05-10T05:41:31;4.70;;;4.30;;
17414;SDS011;8825;48.086;16.426;2023-05-10T05:43:59;4.60;;;4.20;;
17414;SDS011;8825;48.086;16.426;2023-05-10T05:49:14;3.63;;;3.33;;
17414;SDS011;8825;48.086;16.426;2023-05-10T05:51:42;4.30;;;3.73;;
17414;SDS011;8825;48.086;16.426;2023-05-10T05:54:10;4.43;;;3.60;;
17414;SDS011;8825;48.086;16.426;2023-05-10T05:56:37;4.73;;;4.10;;
17414;SDS011;8825;48.086;16.426;2023-05-10T05:59:05;4.40;;;4.00;;
17414;SDS011;8825;48.086;16.426;2023-05-10T06:01:32;4.23;;;3.83;;
17414;SDS011;8825;48.086;16.426;2023-05-10T06:04:00;5.53;;;4.63;;
17414;SDS011;8825;48.086;16.426;2023-05-10T06:06:27;4.93;;;3.70;;
17414;SDS011;8825;48.086;16.426;2023-05-10T06:08:55;3.93;;;3.53;;
17414;SDS011;8825;48.086;16.426;2023-05-10T06:11:22;4.07;;;3.67;;
17414;SDS011;8825;48.086;16.426;2023-05-10T06:13:51;4.20;;;3.80;;
17414;SDS011;8825;48.086;16.426;2023-05-10T06:16:18;6.00;;;3.97;;
17414;SDS011;8825;48.086;16.426;2023-05-10T06:18:46;6.07;;;3.80;;
17414;SDS011;8825;48.086;16.426;2023-05-10T06:21:13;4.43;;;3.97;;
17414;SDS011;8825;48.086;16.426;2023-05-10T06:23:41;4.43;;;3.87;;
17414;SDS011;8825;48.086;16.426;2023-05-10T06:26:09;4.47;;;3.60;;
17414;SDS011;8825;48.086;16.426;2023-05-10T06:28:37;4.20;;;3.73;;
17414;SDS011;8825;48.086;16.426;2023-05-10T06:31:04;3.70;;;3.30;;
17414;SDS011;8825;48.086;16.426;2023-05-10T06:33:33;4.10;;;3.70;;
17414;SDS011;8825;48.086;16.426;2023-05-10T06:36:00;4.70;;;3.83;;
17414;SDS011;8825;48.086;16.426;2023-05-10T06:38:28;5.30;;;4.07;;
17414;SDS011;8825;48.086;16.426;2023-05-10T06:40:56;4.83;;;3.70;;
17414;SDS011;8825;48.086;16.426;2023-05-10T06:43:23;4.23;;;3.83;;
17414;SDS011;8825;48.086;16.426;2023-05-10T06:45:52;4.40;;;3.43;;
17414;SDS011;8825;48.086;16.426;2023-05-10T06:48:19;5.57;;;4.13;;
17414;SDS011;8825;48.086;16.426;2023-05-10T06:50:47;5.93;;;3.90;;
17414;SDS011;8825;48.086;16.426;2023-05-10T06:53:14;6.13;;;3.80;;
17414;SDS011;8825;48.086;16.426;2023-05-10T06:55:42;5.97;;;3.97;;
17414;SDS011;8825;48.086;16.426;2023-05-10T06:58:09;5.00;;;3.60;;
17414;SDS011;8825;48.086;16.426;2023-05-10T07:00:37;4.10;;;3.70;;
17414;SDS011;8825;48.086;16.426;2023-05-10T07:03:06;6.00;;;3.50;;
17414;SDS011;8825;48.086;16.426;2023-05-10T07:05:33;4.00;;;3.60;;
17414;SDS011;8825;48.086;16.426;2023-05-10T07:08:01;3.97;;;3.57;;
17414;SDS011;8825;48.086;16.426;2023-05-10T07:10:28;7.20;;;3.97;;
17414;SDS011;8825;48.086;16.426;2023-05-10T07:12:56;7.33;;;3.93;;
17414;SDS011;8825;48.086;16.426;2023-05-10T07:15:24;3.93;;;3.33;;
17414;SDS011;8825;48.086;16.426;2023-05-10T07:17:51;3.53;;;3.23;;
17414;SDS011;8825;48.086;16.426;2023-05-10T07:20:19;4.47;;;4.07;;
17414;SDS011;8825;48.086;16.426;2023-05-10T07:22:46;4.47;;;3.77;;
17414;SDS011;8825;48.086;16.426;2023-05-10T07:25:14;4.97;;;4.10;;
17414;SDS011;8825;48.086;16.426;2023-05-10T07:27:41;4.57;;;4.00;;
17414;SDS011;8825;48.086;16.426;2023-05-10T07:30:09;4.20;;;3.80;;
17414;SDS011;8825;48.086;16.426;2023-05-10T07:32:37;4.60;;;3.73;;
17414;SDS011;8825;48.086;16.426;2023-05-10T07:35:05;4.07;;;3.67;;
17414;SDS011;8825;48.086;16.426;2023-05-10T07:37:33;4.33;;;3.97;;
17414;SDS011;8825;48.086;16.426;2023-05-10T07:40:00;6.30;;;4.47;;
17414;SDS011;8825;48.086;16.426;2023-05-10T07:42:28;4.77;;;4.07;;
17414;SDS011;8825;48.086;16.426;2023-05-10T07:44:55;4.80;;;4.17;;
17414;SDS011;8825;48.086;16.426;2023-05-10T07:47:23;6.23;;;4.30;;
17414;SDS011;8825;48.086;16.426;2023-05-10T07:49:51;5.63;;;4.20;;
17414;SDS011;8825;48.086;16.426;2023-05-10T07:52:19;5.10;;;4.53;;
17414;SDS011;8825;48.086;16.426;2023-05-10T07:54:46;4.57;;;4.17;;
17414;SDS011;8825;48.086;16.426;2023-05-10T07:57:15;6.27;;;4.40;;
17414;SDS011;8825;48.086;16.426;2023-05-10T07:59:43;7.20;;;4.97;;
17414;SDS011;8825;48.086;16.426;2023-05-10T08:02:11;5.10;;;4.60;;
17414;SDS011;8825;48.086;16.426;2023-05-10T08:04:38;4.60;;;4.20;;
17414;SDS011;8825;48.086;16.426;2023-05-10T08:09:53;5.53;;;4.13;;
17414;SDS011;8825;48.086;16.426;2023-05-10T08:12:20;5.23;;;4.73;;
17414;SDS011;8825;48.086;16.426;2023-05-10T08:14:48;5.40;;;4.33;;
17414;SDS011;8825;48.086;16.426;2023-05-10T08:17:15;4.97;;;4.50;;
17414;SDS011;8825;48.086;16.426;2023-05-10T08:19:43;4.60;;;4.20;;
17414;SDS011;8825;48.086;16.426;2023-05-10T08:22:10;5.47;;;4.20;;
17414;SDS011;8825;48.086;16.426;2023-05-10T08:24:38;6.60;;;4.30;;
17414;SDS011;8825;48.086;16.426;2023-05-10T08:27:08;5.10;;;4.43;;
17414;SDS011;8825;48.086;16.426;2023-05-10T08:29:35;4.93;;;4.00;;
17414;SDS011;8825;48.086;16.426;2023-05-10T08:32:04;4.03;;;3.63;;
17414;SDS011;8825;48.086;16.426;2023-05-10T08:34:31;4.17;;;3.57;;
17414;SDS011;8825;48.086;16.426;2023-05-10T08:36:59;5.03;;;4.27;;
17414;SDS011;8825;48.086;16.426;2023-05-10T08:39:26;5.17;;;3.40;;
17414;SDS011;8825;48.086;16.426;2023-05-10T08:41:54;4.20;;;3.80;;
17414;SDS011;8825;48.086;16.426;2023-05-10T08:44:24;3.97;;;3.67;;
17414;SDS011;8825;48.086;16.426;2023-05-10T08:46:53;4.10;;;3.67;;
17414;SDS011;8825;48.086;16.426;2023-05-10T08:49:21;5.40;;;3.60;;
17414;SDS011;8825;48.086;16.426;2023-05-10T08:51:52;3.27;;;2.97;;
17414;SDS011;8825;48.086;16.426;2023-05-10T08:54:21;3.87;;;3.47;;
17414;SDS011;8825;48.086;16.426;2023-05-10T08:56:49;2.83;;;2.60;;
17414;SDS011;8825;48.086;16.426;2023-05-10T08:59:17;3.03;;;2.83;;
17414;SDS011;8825;48.086;16.426;2023-05-10T09:01:44;6.67;;;2.93;;
17414;SDS011;8825;48.086;16.426;2023-05-10T09:04:13;3.50;;;2.80;;
17414;SDS011;8825;48.086;16.426;2023-05-10T09:06:41;2.30;;;2.10;;
17414;SDS011;8825;48.086;16.426;2023-05-10T09:09:09;3.10;;;2.30;;
17414;SDS011;8825;48.086;16.426;2023-05-10T09:11:37;2.50;;;2.30;;
17414;SDS011;8825;48.086;16.426;2023-05-10T09:14:04;4.20;;;2.27;;
17414;SDS011;8825;48.086;16.426;2023-05-10T09:16:32;2.60;;;1.70;;
17414;SDS011;8825;48.086;16.426;2023-05-10T09:19:00;1.83;;;1.73;;
17414;SDS011;8825;48.086;16.426;2023-05-10T09:21:28;2.53;;;2.17;;
17414;SDS011;8825;48.086;16.426;2023-05-10T09:23:56;3.30;;;1.77;;
17414;SDS011;8825;48.086;16.426;2023-05-10T09:26:25;3.13;;;1.73;;
17414;SDS011;8825;48.086;16.426;2023-05-10T09:28:54;2.90;;;2.20;;
17414;SDS011;8825;48.086;16.426;2023-05-10T09:31:23;2.50;;;1.60;;
17414;SDS011;8825;48.086;16.426;2023-05-10T09:33:54;3.80;;;2.10;;
17414;SDS011;8825;48.086;16.426;2023-05-10T09:39:34;1.90;;;1.70;;
17414;SDS011;8825;48.086;16.426;2023-05-10T09:42:04;1.40;;;1.30;;
17414;SDS011;8825;48.086;16.426;2023-05-10T09:44:33;1.73;;;1.63;;
17414;SDS011;8825;48.086;16.426;2023-05-10T09:47:01;2.03;;;1.37;;
17414;SDS011;8825;48.086;16.426;2023-05-10T09:49:30;2.80;;;1.60;;
17414;SDS011;8825;48.086;16.426;2023-05-10T09:52:04;2.87;;;1.50;;
17414;SDS011;8825;48.086;16.426;2023-05-10T09:54:32;2.43;;;1.80;;
17414;SDS011;8825;48.086;16.426;2023-05-10T09:57:01;12.17;;;2.10;;
17414;SDS011;8825;48.086;16.426;2023-05-10T09:59:29;1.50;;;1.40;;
17414;SDS011;8825;48.086;16.426;2023-05-10T10:01:57;3.43;;;1.50;;
17414;SDS011;8825;48.086;16.426;2023-05-10T10:04:26;1.60;;;1.40;;
17414;SDS011;8825;48.086;16.426;2023-05-10T10:07:01;1.80;;;1.60;;
17414;SDS011;8825;48.086;16.426;2023-05-10T10:09:30;1.80;;;1.40;;
17414;SDS011;8825;48.086;16.426;2023-05-10T10:11:59;1.60;;;1.50;;
17414;SDS011;8825;48.086;16.426;2023-05-10T10:14:28;1.83;;;1.53;;
17414;SDS011;8825;48.086;16.426;2023-05-10T10:16:56;1.73;;;1.37;;
17414;SDS011;8825;48.086;16.426;2023-05-10T10:19:25;1.60;;;1.50;;
17414;SDS011;8825;48.086;16.426;2023-05-10T10:22:13;1.50;;;1.40;;
17414;SDS011;8825;48.086;16.426;2023-05-10T10:24:41;1.83;;;1.50;;
17414;SDS011;8825;48.086;16.426;2023-05-10T10:27:19;1.60;;;1.50;;
17414;SDS011;8825;48.086;16.426;2023-05-10T10:29:59;1.83;;;1.57;;
17414;SDS011;8825;48.086;16.426;2023-05-10T10:32:57;2.03;;;1.40;;
17414;SDS011;8825;48.086;16.426;2023-05-10T10:35:31;2.40;;;1.73;;
17414;SDS011;8825;48.086;16.426;2023-05-10T10:37:59;1.30;;;1.20;;
17414;SDS011;8825;48.086;16.426;2023-05-10T10:40:28;1.53;;;1.43;;
17414;SDS011;8825;48.086;16.426;2023-05-10T10:42:57;2.67;;;1.60;;
17414;SDS011;8825;48.086;16.426;2023-05-10T10:45:26;1.53;;;1.37;;
17414;SDS011;8825;48.086;16.426;2023-05-10T10:50:46;1.70;;;1.60;;
17414;SDS011;8825;48.086;16.426;2023-05-10T10:53:14;2.43;;;1.73;;
17414;SDS011;8825;48.086;16.426;2023-05-10T10:55:45;1.97;;;1.70;;
17414;SDS011;8825;48.086;16.426;2023-05-10T10:58:29;2.17;;;1.80;;
17414;SDS011;8825;48.086;16.426;2023-05-10T11:01:14;3.97;;;1.60;;
17414;SDS011;8825;48.086;16.426;2023-05-10T11:04:16;3.07;;;1.73;;
17414;SDS011;8825;48.086;16.426;2023-05-10T11:09:14;1.60;;;1.50;;
17414;SDS011;8825;48.086;16.426;2023-05-10T11:11:52;1.93;;;1.70;;
17414;SDS011;8825;48.086;16.426;2023-05-10T11:14:21;2.53;;;1.50;;
17414;SDS011;8825;48.086;16.426;2023-05-10T11:16:49;2.40;;;1.50;;
17414;SDS011;8825;48.086;16.426;2023-05-10T11:19:17;2.43;;;1.70;;
17414;SDS011;8825;48.086;16.426;2023-05-10T11:21:46;1.83;;;1.50;;
17414;SDS011;8825;48.086;16.426;2023-05-10T11:24:16;2.30;;;1.70;;
17414;SDS011;8825;48.086;16.426;2023-05-10T11:26:48;1.60;;;1.50;;
17414;SDS011;8825;48.086;16.426;2023-05-10T11:29:18;2.87;;;1.60;;
17414;SDS011;8825;48.086;16.426;2023-05-10T11:31:46;3.17;;;1.40;;
17414;SDS011;8825;48.086;16.426;2023-05-10T11:34:28;1.67;;;1.40;;
17414;SDS011;8825;48.086;16.426;2023-05-10T11:36:59;1.57;;;1.47;;
17414;SDS011;8825;48.086;16.426;2023-05-10T11:39:27;4.10;;;1.50;;
17414;SDS011;8825;48.086;16.426;2023-05-10T11:41:56;1.80;;;1.70;;
17414;SDS011;8825;48.086;16.426;2023-05-10T11:44:46;1.40;;;1.30;;
17414;SDS011;8825;48.086;16.426;2023-05-10T11:47:00;2.23;;;1.70;;
17414;SDS011;8825;48.086;16.426;2023-05-10T11:49:28;1.53;;;1.30;;
17414;SDS011;8825;48.086;16.426;2023-05-10T11:52:06;1.60;;;1.40;;
17414;SDS011;8825;48.086;16.426;2023-05-10T11:54:34;1.60;;;1.50;;
17414;SDS011;8825;48.086;16.426;2023-05-10T11:57:02;1.77;;;1.57;;
17414;SDS011;8825;48.086;16.426;2023-05-10T11:59:30;2.07;;;1.50;;
17414;SDS011;8825;48.086;16.426;2023-05-10T12:01:58;1.30;;;1.20;;
17414;SDS011;8825;48.086;16.426;2023-05-10T12:04:25;1.97;;;1.40;;
17414;SDS011;8825;48.086;16.426;2023-05-10T12:06:55;1.73;;;1.60;;
17414;SDS011;8825;48.086;16.426;2023-05-10T12:09:22;5.33;;;1.80;;
17414;SDS011;8825;48.086;16.426;2023-05-10T12:11:50;5.23;;;1.63;;
17414;SDS011;8825;48.086;16.426;2023-05-10T12:14:21;3.23;;;1.50;;
17414;SDS011;8825;48.086;16.426;2023-05-10T12:16:50;1.67;;;1.23;;
17414;SDS011;8825;48.086;16.426;2023-05-10T12:19:18;1.90;;;1.53;;
17414;SDS011;8825;48.086;16.426;2023-05-10T12:21:49;1.30;;;1.20;;
17414;SDS011;8825;48.086;16.426;2023-05-10T12:24:16;1.87;;;1.30;;
17414;SDS011;8825;48.086;16.426;2023-05-10T12:26:45;1.87;;;1.47;;
17414;SDS011;8825;48.086;16.426;2023-05-10T12:29:14;1.53;;;1.43;;
17414;SDS011;8825;48.086;16.426;2023-05-10T12:31:50;2.27;;;1.70;;
17414;SDS011;8825;48.086;16.426;2023-05-10T12:34:30;1.40;;;1.30;;
17414;SDS011;8825;48.086;16.426;2023-05-10T12:36:55;2.50;;;1.37;;
17414;SDS011;8825;48.086;16.426;2023-05-10T12:39:24;2.80;;;1.47;;
17414;SDS011;8825;48.086;16.426;2023-05-10T12:41:51;1.57;;;1.47;;
17414;SDS011;8825;48.086;16.426;2023-05-10T12:44:19;2.70;;;1.70;;
17414;SDS011;8825;48.086;16.426;2023-05-10T12:46:46;2.70;;;1.70;;
17414;SDS011;8825;48.086;16.426;2023-05-10T12:49:14;3.27;;;1.67;;
17414;SDS011;8825;48.086;16.426;2023-05-10T12:51:42;2.73;;;1.90;;
17414;SDS011;8825;48.086;16.426;2023-05-10T12:54:10;1.70;;;1.60;;
17414;SDS011;8825;48.086;16.426;2023-05-10T12:56:37;1.70;;;1.60;;
17414;SDS011;8825;48.086;16.426;2023-05-10T12:59:06;3.13;;;2.10;;
17414;SDS011;8825;48.086;16.426;2023-05-10T13:01:34;2.90;;;2.00;;
17414;SDS011;8825;48.086;16.426;2023-05-10T13:04:01;3.00;;;2.07;;
17414;SDS011;8825;48.086;16.426;2023-05-10T13:06:29;1.93;;;1.80;;
17414;SDS011;8825;48.086;16.426;2023-05-10T13:08:57;3.50;;;1.93;;
17414;SDS011;8825;48.086;16.426;2023-05-10T13:11:24;3.07;;;1.93;;
17414;SDS011;8825;48.086;16.426;2023-05-10T13:13:52;4.37;;;2.00;;
17414;SDS011;8825;48.086;16.426;2023-05-10T13:16:19;2.87;;;2.10;;
17414;SDS011;8825;48.086;16.426;2023-05-10T13:18:47;3.37;;;1.87;;
17414;SDS011;8825;48.086;16.426;2023-05-10T13:21:14;2.67;;;1.80;;
17414;SDS011;8825;48.086;16.426;2023-05-10T13:23:42;3.27;;;1.80;;
17414;SDS011;8825;48.086;16.426;2023-05-10T13:26:09;1.53;;;1.43;;
17414;SDS011;8825;48.086;16.426;2023-05-10T13:28:37;2.00;;;1.80;;
17414;SDS011;8825;48.086;16.426;2023-05-10T13:31:04;2.27;;;1.67;;
17414;SDS011;8825;48.086;16.426;2023-05-10T13:33:32;3.90;;;1.90;;
17414;SDS011;8825;48.086;16.426;2023-05-10T13:35:59;3.87;;;1.77;;
17414;SDS011;8825;48.086;16.426;2023-05-10T13:38:27;4.00;;;2.10;;
17414;SDS011;8825;48.086;16.426;2023-05-10T13:40:54;2.07;;;1.97;;
17414;SDS011;8825;48.086;16.426;2023-05-10T13:43:23;1.93;;;1.83;;
17414;SDS011;8825;48.086;16.426;2023-05-10T13:45:50;2.80;;;1.80;;
17414;SDS011;8825;48.086;16.426;2023-05-10T13:48:18;1.70;;;1.60;;
17414;SDS011;8825;48.086;16.426;2023-05-10T13:50:46;2.20;;;2.00;;
17414;SDS011;8825;48.086;16.426;2023-05-10T13:53:13;1.80;;;1.70;;
17414;SDS011;8825;48.086;16.426;2023-05-10T13:55:41;1.80;;;1.70;;
17414;SDS011;8825;48.086;16.426;2023-05-10T13:58:08;1.70;;;1.60;;
17414;SDS011;8825;48.086;16.426;2023-05-10T14:00:36;1.73;;;1.63;;
17414;SDS011;8825;48.086;16.426;2023-05-10T14:03:04;2.37;;;1.60;;
17414;SDS011;8825;48.086;16.426;2023-05-10T14:05:32;3.07;;;1.80;;
17414;SDS011;8825;48.086;16.426;2023-05-10T14:08:00;2.13;;;1.70;;
17414;SDS011;8825;48.086;16.426;2023-05-10T14:10:27;1.80;;;1.70;;
17414;SDS011;8825;48.086;16.426;2023-05-10T14:12:55;2.90;;;2.00;;
17414;SDS011;8825;48.086;16.426;2023-05-10T14:15:23;2.03;;;1.70;;
17414;SDS011;8825;48.086;16.426;2023-05-10T14:17:50;1.70;;;1.60;;
17414;SDS011;8825;48.086;16.426;2023-05-10T14:20:18;2.47;;;1.70;;
17414;SDS011;8825;48.086;16.426;2023-05-10T14:22:46;2.63;;;1.73;;
17414;SDS011;8825;48.086;16.426;2023-05-10T14:28:00;1.90;;;1.70;;
17414;SDS011;8825;48.086;16.426;2023-05-10T14:30:28;1.60;;;1.50;;
17414;SDS011;8825;48.086;16.426;2023-05-10T14:32:56;1.73;;;1.50;;
17414;SDS011;8825;48.086;16.426;2023-05-10T14:35:24;2.23;;;1.63;;
17414;SDS011;8825;48.086;16.426;2023-05-10T14:37:51;1.87;;;1.50;;
17414;SDS011;8825;48.086;16.426;2023-05-10T14:40:19;1.70;;;1.50;;
17414;SDS011;8825;48.086;16.426;2023-05-10T14:42:46;1.67;;;1.57;;
17414;SDS011;8825;48.086;16.426;2023-05-10T14:45:14;1.83;;;1.60;;
17414;SDS011;8825;48.086;16.426;2023-05-10T14:47:41;2.47;;;1.60;;
17414;SDS011;8825;48.086;16.426;2023-05-10T14:50:09;1.87;;;1.60;;
17414;SDS011;8825;48.086;16.426;2023-05-10T14:52:37;1.90;;;1.80;;
17414;SDS011;8825;48.086;16.426;2023-05-10T14:55:05;1.87;;;1.50;;
17414;SDS011;8825;48.086;16.426;2023-05-10T14:57:53;1.73;;;1.40;;
17414;SDS011;8825;48.086;16.426;2023-05-10T15:00:21;2.07;;;1.80;;
17414;SDS011;8825;48.086;16.426;2023-05-10T15:02:48;2.30;;;1.73;;
17414;SDS011;8825;48.086;16.426;2023-05-10T15:05:16;3.70;;;1.77;;
17414;SDS011;8825;48.086;16.426;2023-05-10T15:07:44;1.70;;;1.60;;
17414;SDS011;8825;48.086;16.426;2023-05-10T15:10:11;3.03;;;1.60;;
17414;SDS011;8825;48.086;16.426;2023-05-10T15:12:39;2.40;;;1.47;;
17414;SDS011;8825;48.086;16.426;2023-05-10T15:15:07;2.57;;;1.50;;
17414;SDS011;8825;48.086;16.426;2023-05-10T15:17:35;1.60;;;1.40;;
17414;SDS011;8825;48.086;16.426;2023-05-10T15:20:02;1.70;;;1.50;;
17414;SDS011;8825;48.086;16.426;2023-05-10T15:22:30;1.63;;;1.33;;
17414;SDS011;8825;48.086;16.426;2023-05-10T15:24:58;1.80;;;1.70;;
17414;SDS011;8825;48.086;16.426;2023-05-10T15:27:25;1.73;;;1.30;;
17414;SDS011;8825;48.086;16.426;2023-05-10T15:29:53;2.67;;;1.40;;
17414;SDS011;8825;48.086;16.426;2023-05-10T15:32:21;1.50;;;1.30;;
17414;SDS011;8825;48.086;16.426;2023-05-10T15:34:48;5.20;;;1.60;;
17414;SDS011;8825;48.086;16.426;2023-05-10T15:37:16;2.10;;;1.90;;
17414;SDS011;8825;48.086;16.426;2023-05-10T15:39:43;2.17;;;1.50;;
17414;SDS011;8825;48.086;16.426;2023-05-10T15:42:11;2.90;;;1.60;;
17414;SDS011;8825;48.086;16.426;2023-05-10T15:44:39;2.90;;;1.50;;
17414;SDS011;8825;48.086;16.426;2023-05-10T15:47:06;1.60;;;1.47;;
17414;SDS011;8825;48.086;16.426;2023-05-10T15:49:34;2.77;;;2.00;;
17414;SDS011;8825;48.086;16.426;2023-05-10T15:52:02;1.50;;;1.40;;
17414;SDS011;8825;48.086;16.426;2023-05-10T15:54:29;2.63;;;1.53;;
17414;SDS011;8825;48.086;16.426;2023-05-10T15:56:57;2.10;;;1.50;;
17414;SDS011;8825;48.086;16.426;2023-05-10T15:59:24;1.73;;;1.50;;
17414;SDS011;8825;48.086;16.426;2023-05-10T16:01:52;1.80;;;1.60;;
17414;SDS011;8825;48.086;16.426;2023-05-10T16:04:19;2.60;;;1.67;;
17414;SDS011;8825;48.086;16.426;2023-05-10T16:06:48;2.43;;;1.60;;
17414;SDS011;8825;48.086;16.426;2023-05-10T16:09:16;1.80;;;1.70;;
17414;SDS011;8825;48.086;16.426;2023-05-10T16:11:43;1.40;;;1.30;;
17414;SDS011;8825;48.086;16.426;2023-05-10T16:14:11;2.03;;;1.63;;
17414;SDS011;8825;48.086;16.426;2023-05-10T16:16:38;2.60;;;1.90;;